Time;durP1;ratioP1;P1;durP2;ratioP2;P2;SDS_P1;SDS_P2;PMS_P1;PMS_P2;Temp;Humidity;BMP_temperature;BMP_pressure;BME280_temperature;BME280_humidity;BME280_pressure;Samples;Min_cycle;Max_cycle;Signal;HPM_P1;HPM_P2
2022/01/24 00:00:55;;;;;;;6.07;4.60;;;;;;;-0.41;78.93;100288.59;5070006;28;20282;-59
2022/01/24 00:03:22;;;;;;;6.20;4.40;;;;;;;-0.06;79.47;100344.16;5069932;28;20274;-60
2022/01/24 00:05:49;;;;;;;7.20;5.10;;;;;;;-0.10;79.53;100339.66;5069618;28;20194;-59
2022/01/24 00:08:16;;;;;;;6.03;4.73;;;;;;;-0.18;79.48;100343.28;5070173;28;20188;-59
2022/01/24 00:10:46;;;;;;;4.67;4.27;;;;;;;-0.20;78.94;100345.69;5069914;28;20362;-59
2022/01/24 00:16:21;;;;;;;5.40;4.13;;;;;;;-0.23;79.32;100357.22;5044993;28;20195;-59
2022/01/24 00:26:58;;;;;;;5.43;4.60;;;;;;;-0.23;79.37;100372.38;5069875;28;20194;-60
2022/01/24 00:29:27;;;;;;;7.40;5.80;;;;;;;-0.21;78.46;100368.28;5069577;28;20195;-59
2022/01/24 00:31:56;;;;;;;7.87;5.63;;;;;;;-0.20;78.87;100373.47;5070025;28;20268;-60
2022/01/24 00:34:24;;;;;;;7.60;5.83;;;;;;;-0.12;77.88;100364.81;5069730;28;20203;-59
2022/01/24 00:36:51;;;;;;;8.57;5.53;;;;;;;-0.12;77.94;100364.81;5069603;28;20199;-60
2022/01/24 00:39:19;;;;;;;7.00;5.40;;;;;;;-0.11;77.12;100364.00;5072744;28;20996;-60
2022/01/24 00:41:53;;;;;;;8.83;6.10;;;;;;;-0.12;77.30;100377.44;5074036;28;20199;-59
2022/01/24 00:44:43;;;;;;;7.03;5.20;;;;;;;-0.04;76.84;100365.34;5073610;28;20190;-60
2022/01/24 00:47:17;;;;;;;8.37;5.37;;;;;;;-0.21;76.05;100330.41;5067214;28;20280;-59
2022/01/24 00:55:12;;;;;;;9.67;5.37;;;;;;;0.08;74.80;100367.88;5064540;28;20188;-59
2022/01/24 00:57:39;;;;;;;7.70;5.87;;;;;;;0.04;74.34;100373.47;5072645;28;20689;-60
2022/01/24 01:00:07;;;;;;;6.97;5.47;;;;;;;0.09;75.38;100380.59;5072678;28;20200;-59
2022/01/24 01:02:35;;;;;;;6.67;5.63;;;;;;;0.12;74.75;100382.47;5072070;28;20190;-60
2022/01/24 01:05:16;;;;;;;6.17;5.40;;;;;;;0.10;73.60;100379.84;5073164;28;20324;-59
2022/01/24 01:07:55;;;;;;;6.73;5.57;;;;;;;0.14;73.20;100386.84;5062235;28;20208;-59
2022/01/24 01:18:36;;;;;;;6.20;5.40;;;;;;;-0.29;75.00;100407.25;5053184;28;20231;-60
2022/01/24 01:21:10;;;;;;;7.80;5.47;;;;;;;-0.44;76.49;100401.97;5053123;28;20232;-61
2022/01/24 01:23:41;;;;;;;5.67;4.93;;;;;;;-0.51;77.07;100399.75;5052926;28;20207;-59
2022/01/24 01:26:11;;;;;;;6.87;5.20;;;;;;;-0.65;78.38;100411.34;5053221;28;20318;-60
2022/01/24 01:28:41;;;;;;;7.30;5.30;;;;;;;-0.64;78.90;100409.72;5063690;28;20248;-59
2022/01/24 01:31:16;;;;;;;8.07;6.10;;;;;;;-0.62;79.21;100415.75;5065453;28;20502;-54
2022/01/24 01:33:55;;;;;;;8.43;5.70;;;;;;;-0.63;78.71;100409.81;5065463;28;20191;-55
2022/01/24 01:36:36;;;;;;;6.93;5.37;;;;;;;-0.67;78.94;100412.91;5072032;28;20219;-55
2022/01/24 01:53:05;;;;;;;7.90;5.63;;;;;;;-0.81;79.05;100397.47;5072514;28;20191;-59
2022/01/24 01:55:38;;;;;;;7.80;6.20;;;;;;;-0.83;79.55;100404.06;5072770;28;20302;-59
2022/01/24 01:58:05;;;;;;;7.67;6.17;;;;;;;-0.82;79.48;100401.66;5072241;28;20215;-59
2022/01/24 02:00:33;;;;;;;7.40;6.30;;;;;;;-0.74;79.88;100415.72;5072098;28;20188;-59
2022/01/24 02:03:00;;;;;;;8.03;6.57;;;;;;;-0.66;79.58;100413.78;5072155;28;20648;-59
2022/01/24 02:05:28;;;;;;;7.57;6.57;;;;;;;-0.62;78.43;100418.28;5072069;28;20191;-59
2022/01/24 02:07:55;;;;;;;8.17;6.47;;;;;;;-0.60;79.06;100417.63;5072139;28;20198;-60
2022/01/24 02:10:24;;;;;;;8.03;6.80;;;;;;;-0.58;78.70;100429.50;5072235;28;20304;-59
2022/01/24 02:12:52;;;;;;;9.70;7.17;;;;;;;-0.56;78.43;100425.44;5071910;28;20657;-61
2022/01/24 02:15:25;;;;;;;9.67;7.37;;;;;;;-0.58;78.62;100424.44;5071965;28;20231;-59
2022/01/24 02:18:03;;;;;;;10.67;7.67;;;;;;;-0.62;78.28;100426.72;5071839;28;20219;-59
2022/01/24 02:20:43;;;;;;;10.37;7.67;;;;;;;-0.62;78.61;100420.81;5071948;28;20658;-59
2022/01/24 02:23:38;;;;;;;10.60;7.83;;;;;;;-0.65;78.96;100426.50;5071831;28;20195;-59
2022/01/24 02:26:10;;;;;;;11.47;7.63;;;;;;;-0.76;79.14;100427.34;5071707;28;20282;-59
2022/01/24 02:28:49;;;;;;;12.03;8.13;;;;;;;-0.76;79.82;100421.41;5071787;28;20550;-59
2022/01/24 02:31:37;;;;;;;11.00;8.37;;;;;;;-0.80;79.94;100414.38;5071701;28;20187;-59
2022/01/24 02:34:05;;;;;;;13.90;8.90;;;;;;;-0.77;79.68;100429.75;5071779;28;20286;-59
2022/01/24 02:36:32;;;;;;;9.90;7.97;;;;;;;-0.83;79.44;100416.69;5071589;28;20693;-59
2022/01/24 02:39:11;;;;;;;11.27;8.50;;;;;;;-0.87;80.20;100423.13;5071350;28;20273;-59
2022/01/24 02:49:51;;;;;;;10.97;7.80;;;;;;;-0.96;80.03;100434.19;5071340;28;20498;-59
2022/01/24 02:52:18;;;;;;;9.13;7.23;;;;;;;-0.97;79.34;100440.84;5071061;28;20201;-59
2022/01/24 02:54:48;;;;;;;11.60;8.20;;;;;;;-0.95;79.70;100441.84;5071196;28;20199;-59
2022/01/24 02:57:15;;;;;;;10.00;7.67;;;;;;;-0.88;79.74;100445.72;5071004;28;20199;-60
2022/01/24 02:59:42;;;;;;;10.70;8.63;;;;;;;-0.84;79.78;100435.97;5070964;28;20244;-60
2022/01/24 03:02:09;;;;;;;11.37;8.60;;;;;;;-0.86;79.33;100445.06;5070128;28;20223;-59
2022/01/24 03:04:36;;;;;;;9.73;7.73;;;;;;;-0.79;79.64;100449.81;5070915;28;20676;-59
2022/01/24 03:07:03;;;;;;;11.47;7.93;;;;;;;-0.79;79.00;100442.25;5070919;28;20192;-59
2022/01/24 03:09:32;;;;;;;14.97;9.87;;;;;;;-0.82;78.67;100452.09;5071201;28;20192;-60
2022/01/24 03:12:07;;;;;;;21.37;13.23;;;;;;;-0.79;79.66;100454.84;5071013;28;20195;-60
2022/01/24 03:14:35;;;;;;;11.97;8.77;;;;;;;-0.76;78.84;100456.72;5070941;28;20187;-59
2022/01/24 03:17:04;;;;;;;11.33;7.93;;;;;;;-0.70;79.32;100463.13;5071090;28;20195;-55
2022/01/24 03:19:31;;;;;;;11.37;8.33;;;;;;;-0.65;78.50;100473.56;5070694;28;20219;-55
2022/01/24 03:21:58;;;;;;;8.37;7.37;;;;;;;-0.65;78.89;100469.41;5070775;28;20223;-55
2022/01/24 03:24:25;;;;;;;10.53;7.50;;;;;;;-0.64;78.29;100473.69;5070578;28;20245;-55
2022/01/24 03:26:52;;;;;;;10.73;8.10;;;;;;;-0.67;78.17;100467.53;5070595;28;20199;-54
2022/01/24 03:29:20;;;;;;;10.90;8.53;;;;;;;-0.63;78.44;100477.94;5070762;28;20274;-54
2022/01/24 03:31:48;;;;;;;11.33;8.40;;;;;;;-0.55;78.39;100477.66;5070737;28;20195;-55
2022/01/24 03:34:15;;;;;;;11.43;8.00;;;;;;;-0.58;78.46;100473.28;5070617;28;20187;-55
2022/01/24 03:36:43;;;;;;;11.60;7.90;;;;;;;-0.62;78.90;100481.34;5070592;28;20199;-54
2022/01/24 03:39:11;;;;;;;12.43;8.87;;;;;;;-0.70;78.99;100473.22;5070355;28;20219;-55
2022/01/24 03:41:39;;;;;;;11.97;9.10;;;;;;;-0.73;78.71;100478.03;5070092;28;21008;-55
2022/01/24 03:44:07;;;;;;;10.90;8.17;;;;;;;-0.75;78.69;100478.69;5070372;28;20191;-54
2022/01/24 03:46:59;;;;;;;10.67;8.77;;;;;;;-0.72;79.50;100481.44;5070285;28;20188;-55
2022/01/24 03:52:10;;;;;;;13.10;9.77;;;;;;;-0.63;79.32;100492.19;5070143;28;20190;-55
2022/01/24 03:54:37;;;;;;;12.57;10.20;;;;;;;-0.63;79.45;100495.63;5070154;28;20198;-55
2022/01/24 03:57:05;;;;;;;16.75;11.60;;;;;;;-0.62;79.42;100493.97;5069939;28;20938;-55
2022/01/24 03:59:33;;;;;;;15.17;10.73;;;;;;;-0.56;78.86;100493.56;5070271;28;20220;-55
2022/01/24 04:02:02;;;;;;;16.90;12.20;;;;;;;-0.67;78.93;100492.75;5070225;28;20191;-55
2022/01/24 04:04:29;;;;;;;16.67;11.20;;;;;;;-0.64;79.86;100498.91;5069853;28;20199;-55
2022/01/24 04:06:55;;;;;;;16.33;11.33;;;;;;;-0.64;79.13;100501.44;5070018;28;20201;-56
2022/01/24 04:09:22;;;;;;;19.87;12.07;;;;;;;-0.67;79.60;100497.81;5069956;28;20445;-55
2022/01/24 04:11:53;;;;;;;15.60;11.73;;;;;;;-0.64;79.50;100498.03;5069776;28;20192;-55
2022/01/24 04:14:29;;;;;;;17.97;11.97;;;;;;;-0.62;79.01;100504.06;5069847;28;20220;-55
2022/01/24 04:17:08;;;;;;;15.00;11.47;;;;;;;-0.72;78.80;100494.06;5069970;28;20951;-55
2022/01/24 04:22:25;;;;;;;15.87;11.67;;;;;;;-0.84;79.39;100514.16;5069801;28;20262;-55
2022/01/24 04:24:59;;;;;;;15.70;10.90;;;;;;;-0.72;79.67;100509.19;5069960;28;20283;-55
2022/01/24 04:27:27;;;;;;;15.47;10.97;;;;;;;-0.67;79.91;100518.88;5069882;28;20199;-55
2022/01/24 04:29:54;;;;;;;14.63;10.67;;;;;;;-0.69;79.43;100533.00;5069855;28;20204;-55
2022/01/24 04:32:21;;;;;;;15.40;11.43;;;;;;;-0.74;79.34;100498.97;5069796;28;20191;-54
2022/01/24 04:34:50;;;;;;;16.10;12.33;;;;;;;-0.53;78.37;100537.59;5070013;28;20183;-55
2022/01/24 04:37:17;;;;;;;14.77;10.83;;;;;;;-0.68;78.39;100513.69;5069860;28;20269;-55
2022/01/24 04:39:44;;;;;;;19.13;12.10;;;;;;;-0.47;79.07;100542.22;5069771;28;20219;-53
2022/01/24 04:42:15;;;;;;;15.40;12.03;;;;;;;-0.41;78.57;100555.31;5069590;28;20700;-54
2022/01/24 04:44:53;;;;;;;17.10;13.10;;;;;;;-0.73;78.51;100561.28;5069658;28;20245;-55
2022/01/24 04:47:26;;;;;;;21.40;16.03;;;;;;;-0.88;78.81;100560.09;5069419;28;20195;-54
2022/01/24 04:52:47;;;;;;;32.60;22.27;;;;;;;-1.09;79.48;100555.91;5069777;28;20187;-55
2022/01/24 04:55:14;;;;;;;31.50;23.27;;;;;;;-1.16;78.88;100570.44;5069607;28;20198;-55
2022/01/24 04:57:41;;;;;;;26.90;21.67;;;;;;;-1.60;79.32;100575.31;5069290;28;20697;-55
2022/01/24 05:00:10;;;;;;;33.63;26.50;;;;;;;-1.66;80.25;100571.41;5069202;28;20301;-54
2022/01/24 05:02:37;;;;;;;30.73;21.60;;;;;;;-1.63;80.47;100585.16;5069343;28;20278;-54
2022/01/24 05:05:08;;;;;;;33.17;21.67;;;;;;;-1.69;79.98;100583.75;5069219;28;20199;-54
2022/01/24 05:07:35;;;;;;;37.70;24.77;;;;;;;-1.71;80.58;100575.22;5069500;28;20213;-54
2022/01/24 05:10:09;;;;;;;34.37;23.63;;;;;;;-1.75;81.30;100585.78;5068651;28;20277;-54
2022/01/24 05:23:34;;;;;;;34.20;28.10;;;;;;;-1.83;81.31;100602.78;5069270;28;20198;-55
2022/01/24 05:26:05;;;;;;;38.00;28.20;;;;;;;-1.89;80.98;100607.31;5071348;28;20195;-54
2022/01/24 05:28:32;;;;;;;39.77;29.43;;;;;;;-1.89;81.42;100609.84;5072781;28;20660;-55
2022/01/24 05:31:00;;;;;;;36.17;28.73;;;;;;;-1.81;81.45;100607.19;5073112;28;20233;-55
2022/01/24 05:33:28;;;;;;;45.87;32.33;;;;;;;-1.78;81.94;100611.59;5072850;28;20216;-55
2022/01/24 05:35:56;;;;;;;37.73;27.73;;;;;;;-1.75;81.63;100606.81;5072827;28;20191;-55
2022/01/24 05:38:23;;;;;;;37.23;25.90;;;;;;;-1.67;81.87;100615.00;5072660;28;20228;-55
2022/01/24 05:40:51;;;;;;;36.67;26.37;;;;;;;-1.63;81.85;100619.53;5072421;28;20291;-55
2022/01/24 05:43:18;;;;;;;39.93;28.23;;;;;;;-1.51;81.91;100628.09;5072602;28;20191;-55
2022/01/24 05:45:45;;;;;;;36.27;26.00;;;;;;;-1.48;81.23;100630.84;5072204;28;20192;-54
2022/01/24 05:48:12;;;;;;;39.03;28.10;;;;;;;-1.42;81.00;100613.72;5072452;28;20275;-54
2022/01/24 05:50:39;;;;;;;39.57;29.97;;;;;;;-1.37;80.67;100625.91;5072094;28;20666;-55
2022/01/24 05:53:07;;;;;;;45.40;30.83;;;;;;;-1.43;80.32;100615.34;5072009;28;20191;-54
2022/01/24 05:55:35;;;;;;;42.08;31.25;;;;;;;-1.38;80.42;100625.81;5071804;28;20436;-54
2022/01/24 05:58:01;;;;;;;39.10;28.43;;;;;;;-1.35;80.29;100632.00;5072386;28;20275;-55
2022/01/24 06:00:28;;;;;;;39.97;28.60;;;;;;;-1.26;80.69;100634.34;5071968;28;20310;-55
2022/01/24 06:02:55;;;;;;;37.60;27.77;;;;;;;-1.23;80.30;100638.00;5071843;28;20188;-54
2022/01/24 06:05:22;;;;;;;34.00;25.20;;;;;;;-1.14;80.64;100647.06;5071858;28;20191;-55
2022/01/24 06:07:49;;;;;;;40.43;25.50;;;;;;;-1.05;80.58;100641.13;5071865;28;20684;-56
2022/01/24 06:10:17;;;;;;;34.13;25.47;;;;;;;-0.95;80.50;100657.84;5071657;28;20188;-59
2022/01/24 06:12:45;;;;;;;34.73;24.13;;;;;;;-0.86;79.73;100656.97;5071650;28;20207;-59
2022/01/24 06:15:12;;;;;;;31.43;21.57;;;;;;;-0.76;79.93;100648.47;5071745;28;20192;-60
2022/01/24 06:17:39;;;;;;;32.70;23.60;;;;;;;-0.74;79.40;100652.88;5071872;28;20290;-60
2022/01/24 06:20:07;;;;;;;30.60;23.33;;;;;;;-0.71;79.48;100658.16;5071551;28;20211;-59
2022/01/24 06:22:36;;;;;;;31.30;23.33;;;;;;;-0.69;79.52;100663.34;5071779;28;20236;-60
2022/01/24 06:25:04;;;;;;;38.50;26.50;;;;;;;-0.72;79.62;100655.53;5071743;28;20680;-59
2022/01/24 06:27:33;;;;;;;44.87;26.53;;;;;;;-0.58;79.91;100672.63;5071624;28;20202;-60
2022/01/24 06:30:00;;;;;;;52.33;27.03;;;;;;;-0.53;78.72;100675.50;5071738;28;20183;-59
2022/01/24 06:32:27;;;;;;;41.83;24.60;;;;;;;-0.49;78.95;100680.00;5071501;28;20282;-59
2022/01/24 06:34:54;;;;;;;53.47;26.90;;;;;;;-0.45;78.72;100689.59;5071376;28;20313;-59
2022/01/24 06:37:21;;;;;;;49.87;27.53;;;;;;;-0.40;78.84;100695.91;5070708;28;20195;-59
2022/01/24 06:39:47;;;;;;;40.37;26.23;;;;;;;-0.30;78.96;100693.34;5071207;28;20223;-59
2022/01/24 06:42:21;;;;;;;35.10;24.17;;;;;;;-0.34;77.91;100681.22;5071345;28;20196;-60
2022/01/24 06:44:50;;;;;;;38.53;24.17;;;;;;;-0.50;78.47;100701.88;5071376;28;20191;-60
2022/01/24 06:47:17;;;;;;;37.53;26.33;;;;;;;-0.57;79.16;100717.28;5071300;28;20199;-60
2022/01/24 06:49:44;;;;;;;41.90;26.27;;;;;;;-0.57;79.28;100717.28;5070995;28;20183;-60
2022/01/24 06:52:11;;;;;;;38.10;28.37;;;;;;;-0.53;78.32;100715.88;5071014;28;20184;-60
2022/01/24 06:54:41;;;;;;;41.10;28.10;;;;;;;-0.64;78.25;100715.94;5071297;28;20199;-60
2022/01/24 06:57:09;;;;;;;60.87;40.40;;;;;;;-0.91;78.97;100713.72;5071303;28;20249;-60
2022/01/24 06:59:36;;;;;;;53.20;38.60;;;;;;;-0.78;80.10;100725.69;5070747;28;20216;-59
2022/01/24 07:02:05;;;;;;;55.60;38.47;;;;;;;-0.79;79.32;100737.41;5071243;28;20273;-60
2022/01/24 07:04:32;;;;;;;60.77;39.43;;;;;;;-1.12;81.13;100729.63;5070736;28;20257;-59
2022/01/24 07:06:59;;;;;;;47.60;33.20;;;;;;;-1.17;81.02;100741.00;5068923;28;20197;-60
2022/01/24 07:09:26;;;;;;;45.50;30.33;;;;;;;-1.14;81.41;100737.84;5067621;28;20187;-60
2022/01/24 07:11:53;;;;;;;35.00;23.77;;;;;;;-1.12;80.77;100734.69;5070472;28;20282;-60
2022/01/24 07:14:20;;;;;;;39.77;26.87;;;;;;;-1.01;81.19;100730.50;5070041;28;20290;-59
2022/01/24 07:19:32;;;;;;;46.30;32.00;;;;;;;-0.87;80.46;100740.97;5069899;28;20219;-60
2022/01/24 07:22:05;;;;;;;35.30;26.27;;;;;;;-0.98;80.97;100743.34;5069371;28;20220;-60
2022/01/24 07:24:32;;;;;;;39.60;28.67;;;;;;;-0.96;80.15;100745.25;5050451;28;20188;-59
2022/01/24 07:27:00;;;;;;;45.93;31.77;;;;;;;-0.86;80.20;100746.88;5050489;28;20200;-59
2022/01/24 07:29:27;;;;;;;45.53;32.13;;;;;;;-0.83;80.00;100737.94;5063022;28;20246;-59
2022/01/24 07:31:54;;;;;;;49.37;33.90;;;;;;;-0.74;80.37;100743.69;5070169;28;20192;-59
2022/01/24 07:34:21;;;;;;;46.37;33.80;;;;;;;-0.64;79.80;100750.38;5070434;28;20199;-60
2022/01/24 07:36:50;;;;;;;54.70;36.40;;;;;;;-0.64;79.86;100761.34;5069066;28;20191;-60
2022/01/24 07:39:17;;;;;;;54.70;36.97;;;;;;;-0.50;80.29;100761.56;5069643;28;20326;-60
2022/01/24 07:41:46;;;;;;;55.87;36.23;;;;;;;-0.34;79.47;100752.81;5069904;28;20191;-61
2022/01/24 07:44:14;;;;;;;51.90;35.13;;;;;;;-0.38;79.53;100724.66;5070080;28;20195;-55
2022/01/24 07:46:41;;;;;;;52.50;32.13;;;;;;;-0.15;77.28;100762.69;5069511;28;20186;-55
2022/01/24 07:49:12;;;;;;;45.83;30.03;;;;;;;-0.04;77.53;100759.38;5069685;28;20239;-54
2022/01/24 07:51:39;;;;;;;39.57;26.77;;;;;;;0.16;76.54;100764.34;5065235;28;20203;-55
2022/01/24 07:54:08;;;;;;;40.53;27.40;;;;;;;0.30;76.55;100762.88;5067346;28;20594;-59
2022/01/24 07:56:36;;;;;;;47.37;31.07;;;;;;;0.52;75.55;100762.06;5069391;28;20190;-59
2022/01/24 07:59:03;;;;;;;33.97;22.93;;;;;;;0.69;73.43;100765.84;5069306;28;20212;-60
2022/01/24 08:01:30;;;;;;;29.50;21.23;;;;;;;0.93;71.33;100757.59;5069252;28;20190;-60
2022/01/24 08:03:57;;;;;;;21.63;15.20;;;;;;;1.13;66.86;100761.56;5068972;28;20190;-60
2022/01/24 08:06:24;;;;;;;21.40;16.30;;;;;;;1.26;63.25;100761.72;5067081;28;20533;-60
2022/01/24 08:08:51;;;;;;;22.85;18.40;;;;;;;1.55;62.35;100757.09;5064116;28;20828;-60
2022/01/24 08:11:20;;;;;;;29.87;20.53;;;;;;;1.85;60.00;100754.97;5066181;28;20267;-60
2022/01/24 08:13:47;;;;;;;22.87;14.93;;;;;;;1.96;57.50;100754.94;5068837;28;20195;-60
2022/01/24 08:16:14;;;;;;;24.63;17.77;;;;;;;2.11;56.65;100766.16;5069011;28;20198;-61
2022/01/24 08:18:41;;;;;;;18.20;14.77;;;;;;;2.22;54.29;100764.38;5069178;28;20245;-60
2022/01/24 08:21:08;;;;;;;29.83;20.60;;;;;;;2.28;53.64;100769.88;5068351;28;20223;-60
2022/01/24 08:23:36;;;;;;;33.10;20.33;;;;;;;2.16;51.76;100734.41;5069632;28;20618;-59
2022/01/24 08:26:03;;;;;;;16.20;11.97;;;;;;;2.41;48.27;100782.63;5069366;28;20205;-59
2022/01/24 08:28:31;;;;;;;13.60;10.50;;;;;;;2.37;48.66;100778.09;5069308;28;20192;-59
2022/01/24 08:30:58;;;;;;;21.30;13.53;;;;;;;2.34;48.12;100773.69;5067761;28;20201;-59
2022/01/24 08:33:25;;;;;;;13.30;9.83;;;;;;;2.28;48.60;100778.34;5064645;28;20219;-60
2022/01/24 08:35:53;;;;;;;14.37;10.23;;;;;;;2.44;48.75;100789.56;5069275;28;20748;-60
2022/01/24 08:38:21;;;;;;;10.97;8.23;;;;;;;2.53;46.46;100793.59;5069186;28;20191;-60
2022/01/24 08:40:51;;;;;;;10.93;8.80;;;;;;;2.22;45.96;100794.81;5069093;28;20222;-61
2022/01/24 08:43:25;;;;;;;7.57;6.73;;;;;;;2.14;43.53;100794.25;5069605;28;20188;-60
2022/01/24 08:45:58;;;;;;;10.97;8.43;;;;;;;2.02;44.78;100798.47;5069366;28;20200;-60
2022/01/24 08:48:26;;;;;;;10.30;8.80;;;;;;;2.12;46.43;100807.59;5069166;28;20202;-60
2022/01/24 08:50:58;;;;;;;12.40;9.83;;;;;;;2.32;47.38;100804.78;5069109;28;20637;-59
2022/01/24 08:53:26;;;;;;;13.67;10.83;;;;;;;2.11;46.72;100813.44;5069208;28;20214;-61
2022/01/24 08:55:53;;;;;;;12.23;10.07;;;;;;;2.19;46.72;100814.88;5069117;28;20191;-60
2022/01/24 08:58:23;;;;;;;11.37;8.37;;;;;;;2.25;47.25;100815.31;5066389;28;20254;-61
2022/01/24 09:00:50;;;;;;;11.67;9.37;;;;;;;2.30;47.12;100822.47;5070051;28;20208;-61
2022/01/24 09:03:19;;;;;;;11.20;8.13;;;;;;;2.24;45.19;100822.03;5071671;28;20201;-60
2022/01/24 09:05:48;;;;;;;11.53;8.57;;;;;;;2.10;43.52;100822.69;5072142;28;20275;-61
2022/01/24 09:08:15;;;;;;;13.13;10.03;;;;;;;2.16;44.83;100825.69;5069826;28;20194;-61
2022/01/24 09:10:43;;;;;;;12.60;8.47;;;;;;;2.05;46.18;100825.69;5072496;28;20187;-61
2022/01/24 09:13:11;;;;;;;11.73;9.40;;;;;;;1.96;48.04;100830.09;5072394;28;20612;-61
2022/01/24 09:15:38;;;;;;;10.70;8.63;;;;;;;1.93;49.30;100825.69;5072011;28;21150;-60
2022/01/24 09:18:05;;;;;;;10.50;8.10;;;;;;;1.94;47.77;100829.09;5072310;28;20258;-60
2022/01/24 09:20:38;;;;;;;9.93;8.33;;;;;;;2.24;47.03;100828.75;5072031;28;20298;-60
2022/01/24 09:23:05;;;;;;;13.07;10.45;;;;;;;2.53;46.57;100834.16;5071422;28;20486;-60
2022/01/24 09:25:33;;;;;;;13.00;10.43;;;;;;;2.79;45.92;100826.69;5071933;28;20266;-61
2022/01/24 09:28:00;;;;;;;10.37;8.87;;;;;;;2.72;46.91;100827.03;5071747;28;20286;-61
2022/01/24 09:30:27;;;;;;;10.70;8.00;;;;;;;2.46;45.74;100831.09;5071331;28;20303;-60
2022/01/24 09:32:54;;;;;;;8.63;6.83;;;;;;;2.40;44.46;100821.41;5072047;28;20206;-60
2022/01/24 09:35:21;;;;;;;11.00;7.63;;;;;;;2.41;44.28;100828.28;5071762;28;20183;-60
2022/01/24 09:37:50;;;;;;;13.23;8.20;;;;;;;2.56;43.90;100823.34;5072247;28;20202;-61
2022/01/24 09:40:19;;;;;;;9.93;8.07;;;;;;;2.70;43.62;100823.53;5068948;28;20219;-60
2022/01/24 09:42:47;;;;;;;11.23;8.53;;;;;;;2.84;44.36;100822.81;5068815;28;20720;-60
2022/01/24 09:45:16;;;;;;;12.93;9.83;;;;;;;2.98;44.52;100824.63;5067879;28;21029;-61
2022/01/24 09:47:43;;;;;;;11.57;8.73;;;;;;;3.07;43.77;100816.75;5071881;28;20220;-60
2022/01/24 09:50:13;;;;;;;10.50;8.33;;;;;;;3.08;43.09;100827.78;5071879;28;20566;-61
2022/01/24 09:52:42;;;;;;;12.80;9.27;;;;;;;2.73;43.78;100734.94;5069181;28;20539;-59
2022/01/24 09:55:10;;;;;;;12.50;9.83;;;;;;;3.37;44.22;100820.44;5070791;28;20726;-60
2022/01/24 09:57:38;;;;;;;11.00;8.77;;;;;;;3.20;42.04;100811.69;5070239;28;20279;-61
2022/01/24 10:00:08;;;;;;;11.83;8.47;;;;;;;3.14;42.34;100808.75;5069556;28;20257;-60
2022/01/24 10:02:34;;;;;;;14.48;11.80;;;;;;;3.26;43.21;100803.59;5069503;28;20460;-60
2022/01/24 10:05:13;;;;;;;10.70;8.83;;;;;;;3.28;42.82;100804.56;5070653;28;20676;-61
2022/01/24 10:07:40;;;;;;;9.93;8.13;;;;;;;2.54;41.70;100814.75;5072762;28;20176;-60
2022/01/24 10:10:08;;;;;;;11.13;8.13;;;;;;;1.81;43.22;100817.22;5066767;28;20191;-60
2022/01/24 10:18:15;;;;;;;20.50;15.05;;;;;;;1.69;46.09;100798.59;5047953;28;20424;-60
2022/01/24 10:20:43;;;;;;;16.03;11.83;;;;;;;1.83;46.59;100804.66;5063796;28;20215;-60
2022/01/24 10:23:15;;;;;;;16.97;9.30;;;;;;;1.91;44.83;100803.53;5070558;28;20267;-60
2022/01/24 10:25:47;;;;;;;14.80;10.20;;;;;;;1.79;44.94;100822.16;5070784;28;20202;-60
2022/01/24 10:28:23;;;;;;;15.90;8.30;;;;;;;1.74;44.48;100804.88;5069064;28;20192;-60
2022/01/24 10:31:01;;;;;;;11.03;8.10;;;;;;;1.66;44.55;100805.97;5070470;28;20232;-60
2022/01/24 10:33:28;;;;;;;11.43;7.57;;;;;;;1.76;44.91;100803.31;5070488;28;20175;-60
2022/01/24 10:35:55;;;;;;;12.27;8.53;;;;;;;2.11;43.10;100798.25;5069771;28;20192;-57
2022/01/24 10:38:29;;;;;;;10.70;7.37;;;;;;;2.29;43.18;100802.03;5068040;28;20195;-56
2022/01/24 10:41:09;;;;;;;11.37;8.87;;;;;;;2.41;43.02;100807.09;5070643;28;20702;-55
2022/01/24 10:43:40;;;;;;;11.43;8.83;;;;;;;2.29;43.76;100800.41;5071094;28;20270;-55
2022/01/24 10:46:08;;;;;;;13.70;9.70;;;;;;;2.27;44.70;100806.13;5071177;28;20581;-55
2022/01/24 10:48:39;;;;;;;9.27;7.80;;;;;;;2.40;45.04;100796.06;5072009;28;20192;-55
2022/01/24 10:51:09;;;;;;;10.87;7.60;;;;;;;2.36;44.28;100801.72;5072058;28;20601;-54
2022/01/24 10:53:39;;;;;;;6.97;6.07;;;;;;;2.14;42.11;100758.75;5071810;28;20196;-56
2022/01/24 10:56:31;;;;;;;10.83;8.03;;;;;;;2.41;42.84;100785.16;5070678;28;20195;-55
2022/01/24 10:59:14;;;;;;;11.70;8.93;;;;;;;2.26;43.57;100795.09;5070067;28;20194;-56
2022/01/24 11:01:43;;;;;;;9.40;7.30;;;;;;;2.26;41.34;100815.38;5070563;28;20285;-55
2022/01/24 11:04:13;;;;;;;8.50;6.30;;;;;;;2.08;39.05;100795.47;5070555;28;20279;-55
2022/01/24 11:06:41;;;;;;;8.20;6.87;;;;;;;1.87;39.75;100806.66;5070660;28;20191;-55
2022/01/24 11:09:21;;;;;;;11.60;7.20;;;;;;;1.92;40.07;100796.06;5070313;28;20313;-55
2022/01/24 11:11:49;;;;;;;9.43;6.43;;;;;;;2.06;40.67;100795.34;5070632;28;20194;-56
2022/01/24 11:14:20;;;;;;;9.57;7.00;;;;;;;2.20;39.45;100787.06;5070003;28;20191;-56
2022/01/24 11:16:48;;;;;;;11.43;7.40;;;;;;;2.25;40.06;100780.66;5070035;28;20684;-55
2022/01/24 11:19:22;;;;;;;12.73;7.63;;;;;;;2.21;40.54;100790.50;5070315;28;20241;-54
2022/01/24 11:21:51;;;;;;;9.77;7.23;;;;;;;2.37;40.37;100781.50;5070016;28;20263;-54
2022/01/24 11:24:27;;;;;;;13.70;8.20;;;;;;;2.46;38.79;100788.00;5069849;28;20194;-56
2022/01/24 11:26:55;;;;;;;9.53;7.53;;;;;;;2.51;38.63;100779.91;5069813;28;20282;-55
2022/01/24 11:29:24;;;;;;;8.13;6.80;;;;;;;2.14;40.66;100773.09;5070584;28;20186;-55
2022/01/24 11:31:58;;;;;;;11.87;8.10;;;;;;;2.35;40.83;100789.78;5065402;28;20203;-55
2022/01/24 11:34:32;;;;;;;11.40;7.87;;;;;;;2.36;41.38;100794.09;5060249;28;20202;-54
2022/01/24 11:36:59;;;;;;;10.87;7.83;;;;;;;2.45;41.43;100784.56;5069673;28;20270;-55
2022/01/24 11:39:26;;;;;;;12.30;8.17;;;;;;;2.43;40.96;100801.34;5069095;28;20218;-55
2022/01/24 11:41:53;;;;;;;9.50;7.97;;;;;;;2.29;40.14;100809.66;5068481;28;20658;-55
2022/01/24 11:44:22;;;;;;;15.90;7.83;;;;;;;2.19;39.91;100802.19;5067763;28;20299;-55
2022/01/24 11:46:55;;;;;;;12.53;8.63;;;;;;;2.23;39.72;100806.69;5064665;28;20196;-55
2022/01/24 11:49:28;;;;;;;11.43;7.93;;;;;;;1.49;41.56;100774.38;5066346;28;20257;-54
2022/01/24 11:52:04;;;;;;;15.27;9.30;;;;;;;1.55;43.38;100807.75;5068445;28;20246;-55
2022/01/24 11:54:44;;;;;;;11.67;8.37;;;;;;;1.29;44.00;100772.06;5068265;28;20183;-55
2022/01/24 11:57:24;;;;;;;11.00;8.43;;;;;;;1.39;45.14;100792.22;5062902;28;20226;-56
2022/01/24 11:59:53;;;;;;;14.63;9.73;;;;;;;1.53;44.99;100789.03;5069898;28;20678;-61
2022/01/24 12:02:25;;;;;;;14.17;9.47;;;;;;;1.19;43.75;100798.34;5069659;28;20219;-61
2022/01/24 12:04:55;;;;;;;12.70;9.37;;;;;;;1.02;43.73;100787.72;5069687;28;20310;-61
2022/01/24 12:07:23;;;;;;;13.13;9.30;;;;;;;0.79;43.89;100797.81;5069504;28;20760;-63
2022/01/24 12:09:51;;;;;;;11.47;8.53;;;;;;;0.82;41.80;100798.03;5069933;28;20279;-61
2022/01/24 12:12:44;;;;;;;11.13;7.10;;;;;;;0.55;42.14;100797.69;5069907;28;20581;-61
2022/01/24 12:15:32;;;;;;;8.73;6.43;;;;;;;0.74;41.71;100800.00;5069543;28;20634;-61
2022/01/24 12:18:02;;;;;;;7.80;6.30;;;;;;;1.07;40.85;100792.34;5069486;28;20210;-61
2022/01/24 12:20:47;;;;;;;7.33;6.33;;;;;;;1.03;40.87;100759.13;5068924;28;20780;-61
2022/01/24 12:23:33;;;;;;;10.97;7.27;;;;;;;1.17;40.99;100804.06;5065959;28;20191;-61
2022/01/24 12:26:05;;;;;;;11.10;7.40;;;;;;;1.11;41.56;100798.53;5067106;28;20194;-61
2022/01/24 12:28:33;;;;;;;12.87;7.53;;;;;;;1.39;41.63;100801.44;5069273;28;20199;-60
2022/01/24 12:31:01;;;;;;;8.30;6.33;;;;;;;1.50;41.32;100798.94;5069418;28;20191;-60
2022/01/24 12:33:36;;;;;;;7.63;6.77;;;;;;;1.69;40.45;100799.50;5069382;28;20282;-60
2022/01/24 12:36:05;;;;;;;9.33;6.57;;;;;;;1.35;41.05;100787.69;5069407;28;20202;-60
2022/01/24 12:38:50;;;;;;;9.70;6.73;;;;;;;1.64;41.31;100797.41;5068936;28;20287;-60
2022/01/24 12:41:22;;;;;;;10.50;7.13;;;;;;;2.02;41.29;100792.50;5067761;28;20223;-60
2022/01/24 12:43:58;;;;;;;15.37;8.20;;;;;;;1.92;40.99;100765.66;5065744;28;20837;-61
2022/01/24 12:46:26;;;;;;;12.60;8.87;;;;;;;2.14;40.57;100803.53;5065685;28;20195;-60